Time;durP1;ratioP1;P1;durP2;ratioP2;P2;SDS_P1;SDS_P2;PMS_P1;PMS_P2;Temp;Humidity;BMP_temperature;BMP_pressure;BME280_temperature;BME280_humidity;BME280_pressure;Samples;Min_cycle;Max_cycle;Signal;HPM_P1;HPM_P2
2021/07/31 14:43:41;;;;;;;8.15;5.10;;;;;;;;;;10513803;27;20625;-82
2021/07/31 14:48:42;;;;;;;13.10;5.40;;;;;;;;;;10472403;28;20033;-82
2021/07/31 14:53:42;;;;;;;11.48;5.07;;;;;;;;;;10491581;28;20094;-82
2021/07/31 14:58:43;;;;;;;7.03;5.27;;;;;;;;;;10491604;28;20087;-82
2021/07/31 15:03:44;;;;;;;8.60;4.97;;;;;;;;;;10489897;28;20111;-81
2021/07/31 15:08:44;;;;;;;15.55;5.53;;;;;;;;;;10468106;28;20032;-80
2021/07/31 15:13:45;;;;;;;19.05;5.15;;;;;;;;;;10477688;28;20521;-82
2021/07/31 15:18:45;;;;;;;18.40;5.80;;;;;;;;;;10477971;28;20437;-82
2021/07/31 15:23:46;;;;;;;20.27;5.63;;;;;;;;;;10463922;28;20116;-81
2021/07/31 15:28:46;;;;;;;22.52;5.78;;;;;;;;;;10466458;28;20036;-81
2021/07/31 15:33:46;;;;;;;19.60;5.63;;;;;;;;;;10496196;28;20398;-81
2021/07/31 15:38:47;;;;;;;9.75;5.07;;;;;;;;;;10447727;28;20025;-82
2021/07/31 15:43:48;;;;;;;10.10;5.28;;;;;;;;;;10452730;28;20033;-84
2021/07/31 15:48:48;;;;;;;9.13;5.33;;;;;;;;;;10451247;28;20033;-83
2021/07/31 15:53:49;;;;;;;11.50;5.10;;;;;;;;;;10441012;28;20458;-83
2021/07/31 15:58:53;;;;;;;15.27;4.83;;;;;;;;;;10427480;28;20037;-82
2021/07/31 16:03:54;;;;;;;9.50;4.70;;;;;;;;;;10441611;28;20488;-83
2021/07/31 16:08:54;;;;;;;8.43;4.57;;;;;;;;;;10449482;22;20137;-83
2021/07/31 16:13:55;;;;;;;9.93;4.63;;;;;;;;;;10455148;28;20029;-83
2021/07/31 16:18:56;;;;;;;8.40;4.90;;;;;;;;;;10455296;28;20036;-83
2021/07/31 16:23:56;;;;;;;6.80;4.43;;;;;;;;;;10451570;28;20032;-83
2021/07/31 16:28:57;;;;;;;8.73;5.10;;;;;;;;;;10461541;28;20057;-83
2021/07/31 16:33:57;;;;;;;6.10;4.60;;;;;;;;;;10460869;28;20104;-83
2021/07/31 16:38:58;;;;;;;14.33;4.90;;;;;;;;;;10455411;28;20063;-83
2021/07/31 16:43:58;;;;;;;5.53;4.40;;;;;;;;;;10458872;28;20036;-83
2021/07/31 16:49:00;;;;;;;9.70;4.80;;;;;;;;;;10450347;28;20029;-82
2021/07/31 16:54:00;;;;;;;6.43;4.35;;;;;;;;;;10457067;28;20040;-83
2021/07/31 16:59:00;;;;;;;5.47;4.30;;;;;;;;;;10451965;28;20043;-83
2021/07/31 17:04:01;;;;;;;5.33;4.70;;;;;;;;;;10449697;28;20052;-82
2021/07/31 17:09:01;;;;;;;7.47;4.70;;;;;;;;;;10448629;28;20077;-83
2021/07/31 17:14:04;;;;;;;11.27;4.75;;;;;;;;;;10441688;28;20055;-82
2021/07/31 17:19:04;;;;;;;12.32;5.00;;;;;;;;;;10458949;28;20079;-82
2021/07/31 17:24:05;;;;;;;8.93;4.70;;;;;;;;;;10457963;28;20082;-83
2021/07/31 17:29:06;;;;;;;6.65;5.10;;;;;;;;;;10458163;28;20082;-84
2021/07/31 17:34:06;;;;;;;13.38;4.80;;;;;;;;;;10458068;28;20032;-84
2021/07/31 17:39:07;;;;;;;13.88;5.78;;;;;;;;;;10453754;28;20044;-82
2021/07/31 17:44:07;;;;;;;9.20;5.17;;;;;;;;;;10441327;28;20129;-83
2021/07/31 17:49:08;;;;;;;14.17;5.73;;;;;;;;;;10457758;28;20029;-84
2021/07/31 17:54:08;;;;;;;10.15;4.75;;;;;;;;;;10457081;28;20451;-84
2021/07/31 17:59:08;;;;;;;9.00;5.43;;;;;;;;;;10449845;28;20033;-83
2021/07/31 18:04:09;;;;;;;16.80;6.10;;;;;;;;;;10450542;28;20052;-84
2021/07/31 18:09:10;;;;;;;19.77;5.57;;;;;;;;;;10449511;28;20117;-81
2021/07/31 18:14:10;;;;;;;7.80;5.20;;;;;;;;;;10455067;28;20060;-82
2021/07/31 18:19:10;;;;;;;11.17;5.60;;;;;;;;;;10457072;28;20037;-84
2021/07/31 18:24:11;;;;;;;8.30;5.60;;;;;;;;;;10455882;28;20048;-84
2021/07/31 18:29:11;;;;;;;8.43;5.63;;;;;;;;;;10446697;28;20063;-85
2021/07/31 18:34:12;;;;;;;9.07;4.93;;;;;;;;;;10442221;28;20048;-84
2021/07/31 18:39:12;;;;;;;7.73;5.50;;;;;;;;;;10415096;28;20127;-84
2021/07/31 18:44:12;;;;;;;8.93;6.10;;;;;;;;;;10437024;28;20492;-85
2021/07/31 18:49:13;;;;;;;20.50;6.40;;;;;;;;;;10420595;28;20040;-85
2021/07/31 18:54:13;;;;;;;11.50;6.07;;;;;;;;;;10421116;28;20877;-85
2021/07/31 18:59:14;;;;;;;8.37;6.33;;;;;;;;;;10424402;28;20513;-84
2021/07/31 19:04:14;;;;;;;8.47;6.00;;;;;;;;;;10440766;28;20061;-84
2021/07/31 19:09:14;;;;;;;8.20;6.53;;;;;;;;;;10426230;28;20144;-85
2021/07/31 19:14:15;;;;;;;14.48;6.80;;;;;;;;;;10449726;28;20526;-85
2021/07/31 19:19:15;;;;;;;16.43;6.60;;;;;;;;;;10453393;28;20033;-84
2021/07/31 19:24:16;;;;;;;10.43;6.93;;;;;;;;;;10454831;28;20839;-82
2021/07/31 19:29:17;;;;;;;13.65;6.80;;;;;;;;;;10461129;28;20503;-84
2021/07/31 19:34:18;;;;;;;15.32;7.20;;;;;;;;;;10463019;28;20057;-85
2021/07/31 19:39:18;;;;;;;7.22;6.07;;;;;;;;;;10461731;28;20136;-83
2021/07/31 19:44:19;;;;;;;19.60;7.67;;;;;;;;;;10463215;28;20025;-83
2021/07/31 19:49:19;;;;;;;18.08;10.38;;;;;;;;;;10462257;28;20480;-83
2021/07/31 19:54:19;;;;;;;22.00;11.57;;;;;;;;;;10462174;28;20041;-87
2021/07/31 19:59:20;;;;;;;16.53;11.37;;;;;;;;;;10461908;28;20537;-87
2021/07/31 20:04:22;;;;;;;17.57;10.53;;;;;;;;;;10463130;28;20104;-86
2021/07/31 20:09:23;;;;;;;13.98;9.98;;;;;;;;;;10459817;28;20415;-86
2021/07/31 20:14:23;;;;;;;12.77;8.48;;;;;;;;;;10462046;28;20036;-86
2021/07/31 20:19:23;;;;;;;11.23;7.13;;;;;;;;;;10461700;28;20127;-86
2021/07/31 20:24:24;;;;;;;14.30;6.67;;;;;;;;;;10460318;28;20044;-86
2021/07/31 20:29:24;;;;;;;11.27;6.10;;;;;;;;;;10460542;28;20040;-86
2021/07/31 20:34:26;;;;;;;8.63;5.03;;;;;;;;;;10460660;28;20029;-86
2021/07/31 20:39:27;;;;;;;8.35;4.75;;;;;;;;;;10460924;28;20796;-86
2021/07/31 20:44:30;;;;;;;6.22;4.65;;;;;;;;;;10460802;28;20029;-86
2021/07/31 20:49:32;;;;;;;6.07;4.53;;;;;;;;;;10459753;28;20040;-86
2021/07/31 20:54:33;;;;;;;6.22;4.43;;;;;;;;;;10459849;28;20037;-86
2021/07/31 20:59:33;;;;;;;7.50;4.95;;;;;;;;;;10459737;28;20064;-86
2021/07/31 21:04:35;;;;;;;5.23;4.13;;;;;;;;;;10460154;28;20036;-86
2021/07/31 21:09:35;;;;;;;7.32;4.32;;;;;;;;;;10459168;28;20072;-85
2021/07/31 21:14:35;;;;;;;7.27;4.60;;;;;;;;;;10459629;28;20521;-84
2021/07/31 21:19:36;;;;;;;11.00;4.97;;;;;;;;;;10459683;28;20056;-83
2021/07/31 21:24:36;;;;;;;4.80;4.03;;;;;;;;;;10458006;28;20064;-85
2021/07/31 21:29:37;;;;;;;12.00;6.07;;;;;;;;;;10459112;28;21025;-83
2021/07/31 21:34:37;;;;;;;9.83;5.50;;;;;;;;;;10458604;28;20467;-85
2021/07/31 21:39:37;;;;;;;13.03;5.30;;;;;;;;;;10458476;28;20379;-83
2021/07/31 21:44:38;;;;;;;8.93;6.10;;;;;;;;;;10458035;28;20036;-86
2021/07/31 21:49:38;;;;;;;12.13;7.18;;;;;;;;;;10457642;28;20058;-84
2021/07/31 21:54:38;;;;;;;16.97;6.53;;;;;;;;;;10457834;28;20032;-87
2021/07/31 21:59:39;;;;;;;9.20;5.70;;;;;;;;;;10457224;28;20021;-86
2021/07/31 22:04:39;;;;;;;8.87;5.67;;;;;;;;;;10457911;28;20459;-85
2021/07/31 22:09:40;;;;;;;7.33;5.77;;;;;;;;;;10457905;28;20048;-86
2021/07/31 22:14:40;;;;;;;13.00;5.83;;;;;;;;;;10456758;28;20410;-86
2021/07/31 22:19:40;;;;;;;11.43;6.23;;;;;;;;;;10456033;28;20461;-86
2021/07/31 22:24:41;;;;;;;7.97;5.47;;;;;;;;;;10456265;28;20804;-86
2021/07/31 22:29:41;;;;;;;8.63;5.60;;;;;;;;;;10456002;28;20470;-86
2021/07/31 22:34:42;;;;;;;10.65;5.03;;;;;;;;;;10455686;28;20075;-86
2021/07/31 22:39:42;;;;;;;10.00;5.10;;;;;;;;;;10456584;28;20028;-86
2021/07/31 22:44:42;;;;;;;10.33;5.83;;;;;;;;;;10456200;28;20360;-86
2021/07/31 22:49:43;;;;;;;5.73;4.87;;;;;;;;;;10456454;28;20033;-86
2021/07/31 22:54:44;;;;;;;8.97;5.00;;;;;;;;;;10456495;28;20446;-86
2021/07/31 22:59:44;;;;;;;12.38;5.95;;;;;;;;;;10454577;28;20975;-86
2021/07/31 23:04:45;;;;;;;7.27;5.47;;;;;;;;;;10463170;28;20029;-82
2021/07/31 23:09:45;;;;;;;10.23;5.40;;;;;;;;;;10464487;28;20075;-82
2021/07/31 23:14:46;;;;;;;10.67;5.37;;;;;;;;;;10464289;28;20112;-82
2021/07/31 23:19:46;;;;;;;11.52;5.07;;;;;;;;;;10463825;28;20493;-82
2021/07/31 23:24:47;;;;;;;7.20;5.32;;;;;;;;;;10463908;28;20035;-83
2021/07/31 23:29:47;;;;;;;7.87;6.10;;;;;;;;;;10462750;28;20069;-82
2021/07/31 23:34:47;;;;;;;11.80;5.37;;;;;;;;;;10462795;28;20037;-83
2021/07/31 23:39:48;;;;;;;7.15;5.03;;;;;;;;;;10462975;28;20032;-83
2021/07/31 23:44:48;;;;;;;7.67;5.00;;;;;;;;;;10462594;28;20381;-83
2021/07/31 23:49:49;;;;;;;8.13;4.97;;;;;;;;;;10462200;28;20064;-84
2021/07/31 23:54:49;;;;;;;9.20;4.83;;;;;;;;;;10462010;28;20040;-84
2021/07/31 23:59:50;;;;;;;6.03;4.53;;;;;;;;;;10462251;28;20060;-85
